Time;durP1;ratioP1;P1;durP2;ratioP2;P2;SDS_P1;SDS_P2;PMS_P1;PMS_P2;Temp;Humidity;BMP_temperature;BMP_pressure;BME280_temperature;BME280_humidity;BME280_pressure;Samples;Min_cycle;Max_cycle;Signal;HPM_P1;HPM_P2
2023/12/16 00:00:45;;;;;;;34.05;17.63;;;6.00;99.90;;;;;;2074814;28;20033;-76
2023/12/16 00:01:46;;;;;;;33.47;17.45;;;6.00;99.90;;;;;;2075810;28;20041;-75
2023/12/16 00:02:46;;;;;;;36.08;17.50;;;6.10;99.90;;;;;;2075079;28;20022;-76
2023/12/16 00:03:47;;;;;;;34.88;17.73;;;6.10;99.90;;;;;;2078606;28;20033;-77
2023/12/16 00:04:48;;;;;;;34.83;17.95;;;6.10;99.90;;;;;;2079427;28;20514;-77
2023/12/16 00:05:48;;;;;;;34.38;17.08;;;6.10;99.90;;;;;;2079357;28;20542;-77
2023/12/16 00:06:49;;;;;;;36.95;18.35;;;6.00;99.90;;;;;;2068568;28;20552;-77
2023/12/16 00:07:49;;;;;;;36.65;18.58;;;6.00;99.90;;;;;;2068972;28;20025;-74
2023/12/16 00:08:50;;;;;;;35.05;18.13;;;6.00;99.90;;;;;;2084636;28;20028;-76
2023/12/16 00:09:50;;;;;;;35.17;17.63;;;6.00;99.90;;;;;;2079568;28;20053;-76
2023/12/16 00:10:51;;;;;;;31.83;17.08;;;6.00;99.90;;;;;;2077263;28;20026;-76
2023/12/16 00:11:52;;;;;;;35.65;18.27;;;6.00;99.90;;;;;;2078931;28;20095;-75
2023/12/16 00:12:52;;;;;;;33.85;17.98;;;6.00;99.90;;;;;;2075801;28;20026;-76
2023/12/16 00:13:53;;;;;;;34.38;17.73;;;6.00;99.90;;;;;;2076103;28;20531;-75
2023/12/16 00:14:53;;;;;;;34.78;17.00;;;6.00;99.90;;;;;;2087054;28;20117;-76
2023/12/16 00:15:54;;;;;;;36.90;17.75;;;6.00;99.90;;;;;;2078170;28;20154;-77
2023/12/16 00:16:54;;;;;;;36.17;17.70;;;6.00;99.90;;;;;;2076588;28;20025;-77
2023/12/16 00:17:55;;;;;;;33.17;16.42;;;6.00;99.90;;;;;;2075653;28;20021;-75
2023/12/16 00:18:56;;;;;;;32.58;16.48;;;6.00;99.90;;;;;;2075373;28;20144;-76
2023/12/16 00:19:56;;;;;;;34.03;17.08;;;6.00;99.90;;;;;;2078000;28;20025;-75
2023/12/16 00:20:57;;;;;;;29.83;16.80;;;6.10;99.90;;;;;;2073805;28;20022;-76
2023/12/16 00:21:57;;;;;;;32.28;16.48;;;6.00;99.90;;;;;;2078116;28;20223;-76
2023/12/16 00:22:58;;;;;;;31.15;16.92;;;6.10;99.90;;;;;;2077295;28;20035;-77
2023/12/16 00:23:58;;;;;;;33.42;16.67;;;6.10;99.90;;;;;;2075383;28;20044;-77
2023/12/16 00:24:59;;;;;;;31.33;16.48;;;6.10;99.90;;;;;;2078241;28;20407;-76
2023/12/16 00:26:00;;;;;;;29.55;16.02;;;6.10;99.90;;;;;;2078296;28;20497;-76
2023/12/16 00:27:00;;;;;;;28.20;16.58;;;6.10;99.90;;;;;;2075853;28;20316;-75
2023/12/16 00:28:01;;;;;;;35.75;16.58;;;6.10;99.90;;;;;;2082880;28;20037;-75
2023/12/16 00:29:01;;;;;;;31.58;16.52;;;6.10;99.90;;;;;;2085397;28;20027;-76
2023/12/16 00:30:02;;;;;;;33.55;16.95;;;6.10;99.90;;;;;;2079562;28;20017;-76
2023/12/16 00:31:03;;;;;;;32.65;17.02;;;6.10;99.90;;;;;;2083026;28;20009;-76
2023/12/16 00:32:03;;;;;;;34.20;16.02;;;6.10;99.90;;;;;;2083753;28;20123;-76
2023/12/16 00:33:04;;;;;;;30.52;16.65;;;6.10;99.90;;;;;;2082386;28;20124;-78
2023/12/16 00:34:05;;;;;;;31.17;16.08;;;6.10;99.90;;;;;;2086242;28;20044;-76
2023/12/16 00:35:09;;;;;;;33.92;16.15;;;6.10;99.90;;;;;;2074600;28;20147;-74
2023/12/16 00:36:10;;;;;;;41.08;23.55;;;6.10;99.90;;;;;;2083110;28;20071;-76
2023/12/16 00:37:10;;;;;;;30.75;16.73;;;6.10;99.90;;;;;;2089615;28;20032;-76
2023/12/16 00:38:11;;;;;;;31.67;16.55;;;6.10;99.90;;;;;;2069774;28;20033;-76
2023/12/16 00:39:12;;;;;;;33.75;16.33;;;6.10;99.90;;;;;;2066728;28;20106;-75
2023/12/16 00:40:12;;;;;;;35.35;16.75;;;6.20;99.90;;;;;;2077575;28;20559;-75
2023/12/16 00:41:13;;;;;;;33.60;17.13;;;6.20;99.90;;;;;;2070025;28;20084;-74
2023/12/16 00:42:14;;;;;;;32.00;17.08;;;6.20;99.90;;;;;;2075169;28;20042;-74
2023/12/16 00:43:14;;;;;;;38.13;16.83;;;6.20;99.90;;;;;;2077790;28;20108;-75
2023/12/16 00:44:15;;;;;;;29.58;16.48;;;6.10;99.90;;;;;;2085897;28;20036;-75
2023/12/16 00:45:15;;;;;;;33.25;16.85;;;6.20;99.90;;;;;;2077860;28;20828;-76
2023/12/16 00:46:16;;;;;;;35.33;16.73;;;6.10;99.90;;;;;;2076740;28;20030;-75
2023/12/16 00:47:16;;;;;;;34.80;17.05;;;6.20;99.90;;;;;;2086668;28;20123;-76
2023/12/16 00:48:17;;;;;;;31.42;16.90;;;6.20;99.90;;;;;;2082313;28;20037;-76
2023/12/16 00:49:17;;;;;;;33.40;16.63;;;6.20;99.90;;;;;;2074224;28;20021;-74
2023/12/16 00:50:18;;;;;;;34.72;17.42;;;6.10;99.90;;;;;;2078162;28;20029;-75
2023/12/16 00:51:21;;;;;;;34.22;17.77;;;6.10;99.90;;;;;;2072330;28;20057;-75
2023/12/16 00:52:22;;;;;;;34.00;17.05;;;6.10;99.90;;;;;;2056603;28;20038;-75
2023/12/16 00:53:23;;;;;;;34.70;17.05;;;6.10;99.90;;;;;;2075949;28;20036;-76
2023/12/16 00:54:23;;;;;;;34.20;17.17;;;6.10;99.90;;;;;;2086322;28;20207;-76
2023/12/16 00:55:24;;;;;;;37.20;18.10;;;6.10;99.90;;;;;;2080676;28;20037;-76
2023/12/16 00:56:25;;;;;;;34.60;18.05;;;6.10;99.90;;;;;;2075952;28;20042;-77
2023/12/16 00:57:25;;;;;;;34.85;17.65;;;6.10;99.90;;;;;;2078326;28;20040;-75
2023/12/16 00:58:26;;;;;;;31.83;16.75;;;6.10;99.90;;;;;;2077839;28;20609;-75
2023/12/16 00:59:26;;;;;;;35.40;17.00;;;6.10;99.90;;;;;;2076186;28;20037;-75
2023/12/16 01:00:27;;;;;;;34.42;16.95;;;6.10;99.90;;;;;;2077838;28;20100;-76
2023/12/16 01:01:27;;;;;;;36.42;18.02;;;6.10;99.90;;;;;;2077978;28;20082;-75
2023/12/16 01:02:28;;;;;;;32.70;17.08;;;6.10;99.90;;;;;;2075928;28;20106;-75
2023/12/16 01:03:28;;;;;;;35.60;17.40;;;6.10;99.90;;;;;;2074696;28;20037;-75
2023/12/16 01:04:29;;;;;;;33.95;17.88;;;6.10;99.90;;;;;;2077102;28;20040;-75
2023/12/16 01:05:30;;;;;;;35.55;17.63;;;6.10;99.90;;;;;;2074915;28;20049;-75
2023/12/16 01:06:30;;;;;;;36.88;18.48;;;6.10;99.90;;;;;;2078746;28;20041;-75
2023/12/16 01:07:31;;;;;;;38.30;17.92;;;6.10;99.90;;;;;;2078040;28;20530;-76
2023/12/16 01:08:32;;;;;;;38.08;18.52;;;6.10;99.90;;;;;;2076883;28;20029;-76
2023/12/16 01:09:33;;;;;;;38.70;18.25;;;6.10;99.90;;;;;;2084214;28;20270;-75
2023/12/16 01:10:33;;;;;;;34.72;17.60;;;6.10;99.90;;;;;;2087627;28;20021;-76
2023/12/16 01:11:34;;;;;;;36.42;17.95;;;6.10;99.90;;;;;;2076104;28;20052;-75
2023/12/16 01:12:35;;;;;;;35.42;18.25;;;6.10;99.90;;;;;;2067597;28;20499;-76
2023/12/16 01:13:35;;;;;;;34.03;17.92;;;6.00;99.90;;;;;;2079774;28;20545;-75
2023/12/16 01:14:36;;;;;;;35.97;17.75;;;6.00;99.90;;;;;;2080292;28;20020;-76
2023/12/16 01:15:36;;;;;;;37.70;17.90;;;6.10;99.90;;;;;;2075588;28;20033;-76
2023/12/16 01:16:37;;;;;;;36.30;18.40;;;6.10;99.90;;;;;;2075707;28;20511;-74
2023/12/16 01:17:38;;;;;;;36.30;18.60;;;6.00;99.90;;;;;;2083801;28;20040;-75
2023/12/16 01:18:38;;;;;;;39.10;19.30;;;6.10;99.90;;;;;;2084072;28;20028;-75
2023/12/16 01:19:39;;;;;;;41.00;18.85;;;6.00;99.90;;;;;;2079558;28;20087;-75
2023/12/16 01:20:40;;;;;;;37.45;19.65;;;6.00;99.90;;;;;;2075750;28;20029;-75
2023/12/16 01:21:41;;;;;;;41.95;18.88;;;6.00;99.90;;;;;;2076745;28;20448;-76
2023/12/16 01:22:42;;;;;;;42.50;20.00;;;6.00;99.90;;;;;;2079635;28;20044;-76
2023/12/16 01:23:43;;;;;;;42.85;19.80;;;6.00;99.90;;;;;;2080646;28;20053;-76
2023/12/16 01:24:43;;;;;;;38.58;19.27;;;6.00;99.90;;;;;;2076935;28;20033;-76
2023/12/16 01:25:44;;;;;;;41.50;19.00;;;6.00;99.90;;;;;;2079625;28;20029;-75
2023/12/16 01:26:45;;;;;;;40.15;19.50;;;6.00;99.90;;;;;;2078904;28;20037;-76
2023/12/16 01:27:47;;;;;;;38.97;19.45;;;6.00;99.90;;;;;;2080382;28;20025;-76
2023/12/16 01:28:47;;;;;;;38.40;19.48;;;6.00;99.90;;;;;;2077517;28;20029;-76
2023/12/16 01:29:48;;;;;;;39.25;18.80;;;6.00;99.90;;;;;;2079277;28;20438;-76
2023/12/16 01:30:48;;;;;;;41.95;19.65;;;6.00;99.90;;;;;;2084295;28;20407;-76
2023/12/16 01:31:49;;;;;;;40.78;19.52;;;6.00;99.90;;;;;;2071169;28;20882;-76
2023/12/16 01:32:51;;;;;;;41.85;19.30;;;6.00;99.90;;;;;;2078083;28;20040;-76
2023/12/16 01:33:52;;;;;;;39.78;18.80;;;6.10;99.90;;;;;;2081417;28;20055;-76
2023/12/16 01:34:52;;;;;;;36.95;18.63;;;6.10;99.90;;;;;;2079190;28;20049;-76
2023/12/16 01:35:53;;;;;;;37.92;18.45;;;6.10;99.90;;;;;;2082133;28;20036;-76
2023/12/16 01:36:53;;;;;;;38.40;18.55;;;6.10;99.90;;;;;;2085718;28;20035;-76
2023/12/16 01:37:54;;;;;;;39.65;18.73;;;6.10;99.90;;;;;;2078740;28;20273;-75
2023/12/16 01:38:55;;;;;;;42.95;19.23;;;6.10;99.90;;;;;;2078290;28;20030;-75
2023/12/16 01:39:55;;;;;;;38.58;18.27;;;6.10;99.90;;;;;;2080214;28;20561;-75
2023/12/16 01:40:56;;;;;;;34.70;18.60;;;6.10;99.90;;;;;;2078555;28;20404;-76
2023/12/16 01:41:56;;;;;;;37.72;18.10;;;6.10;99.90;;;;;;2077102;28;20523;-76
2023/12/16 01:42:57;;;;;;;35.15;18.15;;;6.20;99.90;;;;;;2068155;28;20732;-75
2023/12/16 01:43:57;;;;;;;38.42;17.63;;;6.20;99.90;;;;;;2075455;28;20516;-76
2023/12/16 01:44:58;;;;;;;35.45;17.38;;;6.10;99.90;;;;;;2080204;28;20501;-76
2023/12/16 01:46:03;;;;;;;35.67;18.58;;;6.20;99.90;;;;;;2077979;28;20218;-75
2023/12/16 01:47:03;;;;;;;33.28;17.33;;;6.20;99.90;;;;;;2077331;28;20052;-75
2023/12/16 01:48:06;;;;;;;35.25;18.42;;;6.20;99.90;;;;;;2087505;28;20029;-75
2023/12/16 01:49:06;;;;;;;40.42;18.17;;;6.10;99.90;;;;;;2087268;28;20024;-76
2023/12/16 01:50:08;;;;;;;34.75;17.00;;;6.20;99.90;;;;;;2075780;28;20090;-76
2023/12/16 01:51:09;;;;;;;35.72;17.92;;;6.10;99.90;;;;;;2071372;28;20041;-76
2023/12/16 01:52:10;;;;;;;36.40;16.88;;;6.20;99.90;;;;;;2080130;28;20089;-76
2023/12/16 01:53:10;;;;;;;33.13;17.10;;;6.10;99.90;;;;;;2076727;28;20045;-76
2023/12/16 01:54:12;;;;;;;35.67;17.45;;;6.10;99.90;;;;;;2080102;28;20510;-77
2023/12/16 01:55:14;;;;;;;31.00;16.98;;;6.10;99.90;;;;;;2080140;28;20062;-76
2023/12/16 01:56:15;;;;;;;34.22;17.15;;;6.10;99.90;;;;;;2077107;28;20083;-76
2023/12/16 01:57:15;;;;;;;34.95;17.17;;;6.20;99.90;;;;;;2078629;28;20240;-76
2023/12/16 01:58:16;;;;;;;35.75;17.10;;;6.20;99.90;;;;;;2078046;28;20438;-74
2023/12/16 01:59:17;;;;;;;31.08;16.58;;;6.20;99.90;;;;;;2080407;28;20043;-74
2023/12/16 02:00:20;;;;;;;35.08;17.48;;;6.20;99.90;;;;;;2075896;28;20389;-75
2023/12/16 02:01:23;;;;;;;37.50;17.95;;;6.20;99.90;;;;;;2083552;28;20029;-75
2023/12/16 02:02:26;;;;;;;35.28;16.88;;;6.20;99.90;;;;;;2087680;28;20239;-75
2023/12/16 02:03:28;;;;;;;36.55;17.95;;;6.20;99.90;;;;;;2078576;28;20041;-75
2023/12/16 02:04:29;;;;;;;34.22;17.02;;;6.10;99.90;;;;;;2077218;28;20414;-76
2023/12/16 02:05:29;;;;;;;34.05;16.77;;;6.10;99.90;;;;;;2076750;28;20044;-75
2023/12/16 02:06:30;;;;;;;35.72;17.35;;;6.20;99.90;;;;;;2087494;28;20487;-76
2023/12/16 02:07:30;;;;;;;33.25;16.88;;;6.20;99.90;;;;;;2078037;28;20033;-77
2023/12/16 02:08:31;;;;;;;35.95;17.23;;;6.20;99.90;;;;;;2076417;28;20041;-77
2023/12/16 02:09:32;;;;;;;35.20;17.42;;;6.20;99.90;;;;;;2084190;28;20164;-74
2023/12/16 02:10:32;;;;;;;38.00;18.40;;;6.10;99.90;;;;;;2078459;28;20082;-75
2023/12/16 02:11:33;;;;;;;35.97;16.90;;;6.10;99.90;;;;;;2076071;28;20037;-75
2023/12/16 02:12:33;;;;;;;35.72;16.95;;;6.10;99.90;;;;;;2079219;28;20072;-75
2023/12/16 02:13:34;;;;;;;34.92;17.05;;;6.10;99.90;;;;;;2076444;28;20405;-75
2023/12/16 02:14:34;;;;;;;32.35;16.75;;;6.20;99.90;;;;;;2083369;28;20132;-75
2023/12/16 02:15:35;;;;;;;34.63;16.50;;;6.20;99.90;;;;;;2083474;28;20095;-75
2023/12/16 02:16:36;;;;;;;34.70;16.63;;;6.20;99.90;;;;;;2079882;28;20051;-76
2023/12/16 02:17:36;;;;;;;37.13;16.58;;;6.20;99.90;;;;;;2079637;28;20032;-76
2023/12/16 02:18:37;;;;;;;37.90;17.50;;;6.20;99.90;;;;;;2079769;28;20029;-75
2023/12/16 02:19:39;;;;;;;35.92;15.73;;;6.20;99.90;;;;;;2074657;28;20420;-75
2023/12/16 02:20:40;;;;;;;35.10;16.90;;;6.20;99.90;;;;;;2070798;28;20173;-76
2023/12/16 02:21:40;;;;;;;32.60;16.33;;;6.20;99.90;;;;;;2069422;28;20423;-74
2023/12/16 02:22:41;;;;;;;33.92;16.77;;;6.20;99.90;;;;;;2067025;28;20129;-75
2023/12/16 02:23:41;;;;;;;27.38;15.75;;;6.20;99.90;;;;;;2066983;28;20037;-74
2023/12/16 02:24:42;;;;;;;33.22;15.55;;;6.20;99.90;;;;;;2075429;28;20100;-74
2023/12/16 02:25:43;;;;;;;31.52;15.77;;;6.20;99.90;;;;;;2076112;28;20025;-74
2023/12/16 02:26:44;;;;;;;34.20;15.93;;;6.20;99.90;;;;;;2078940;28;20030;-75
2023/12/16 02:27:45;;;;;;;30.35;15.77;;;6.20;99.90;;;;;;2075570;28;20036;-74
2023/12/16 02:28:45;;;;;;;29.90;15.10;;;6.20;99.90;;;;;;2075861;28;20033;-75
2023/12/16 02:29:46;;;;;;;33.45;15.70;;;6.20;99.90;;;;;;2070406;28;20124;-75
2023/12/16 02:30:46;;;;;;;34.75;15.90;;;6.20;99.90;;;;;;2077435;28;20224;-75
2023/12/16 02:31:47;;;;;;;30.60;15.45;;;6.20;99.90;;;;;;2081565;28;20021;-76
2023/12/16 02:32:48;;;;;;;29.58;15.40;;;6.20;99.90;;;;;;2084358;28;20025;-76
2023/12/16 02:33:48;;;;;;;31.48;15.55;;;6.20;99.90;;;;;;2078401;28;20458;-76
2023/12/16 02:34:49;;;;;;;29.98;15.82;;;6.20;99.90;;;;;;2079053;28;20028;-75
2023/12/16 02:35:49;;;;;;;32.58;15.70;;;6.20;99.90;;;;;;2076950;28;20039;-75
2023/12/16 02:36:50;;;;;;;31.17;15.45;;;6.20;99.90;;;;;;2075824;28;20124;-75
2023/12/16 02:37:50;;;;;;;31.30;14.90;;;6.20;99.90;;;;;;2078846;28;20025;-75
2023/12/16 02:38:51;;;;;;;28.23;14.52;;;6.20;99.90;;;;;;2084767;28;20510;-75
2023/12/16 02:39:51;;;;;;;32.38;14.80;;;6.20;99.90;;;;;;2086004;28;20059;-75
2023/12/16 02:40:53;;;;;;;30.75;14.93;;;6.20;99.90;;;;;;2079708;28;20082;-76
2023/12/16 02:41:53;;;;;;;29.98;15.43;;;6.20;99.90;;;;;;2076059;28;20037;-75
2023/12/16 02:42:54;;;;;;;29.17;14.48;;;6.20;99.90;;;;;;2075666;28;20028;-75
2023/12/16 02:43:55;;;;;;;26.70;14.75;;;6.20;99.90;;;;;;2079830;28;20401;-75
2023/12/16 02:44:55;;;;;;;31.02;14.80;;;6.20;99.90;;;;;;2077892;28;20037;-75
2023/12/16 02:45:56;;;;;;;32.72;14.80;;;6.20;99.90;;;;;;2078116;28;20078;-75
2023/12/16 02:46:56;;;;;;;29.95;14.48;;;6.20;99.90;;;;;;2076250;28;20079;-75
2023/12/16 02:47:57;;;;;;;28.80;13.45;;;6.20;99.90;;;;;;2078183;28;20178;-75
2023/12/16 02:48:57;;;;;;;28.27;13.77;;;6.20;99.90;;;;;;2075617;28;20127;-75
2023/12/16 02:49:58;;;;;;;34.17;13.65;;;6.20;99.90;;;;;;2077839;28;20395;-76
2023/12/16 02:50:58;;;;;;;27.42;13.35;;;6.20;99.90;;;;;;2075829;28;20137;-74
2023/12/16 02:51:59;;;;;;;31.05;14.13;;;6.20;99.90;;;;;;2083203;28;20028;-74
2023/12/16 02:52:59;;;;;;;26.92;13.10;;;6.20;99.90;;;;;;2087317;28;20032;-74
2023/12/16 02:54:00;;;;;;;28.80;13.00;;;6.20;99.90;;;;;;2078033;28;20447;-74
2023/12/16 02:55:01;;;;;;;30.48;13.48;;;6.20;99.90;;;;;;2076624;28;21596;-74
2023/12/16 02:56:01;;;;;;;26.60;13.00;;;6.20;99.90;;;;;;2067467;28;20021;-75
2023/12/16 02:57:02;;;;;;;24.02;12.70;;;6.20;99.90;;;;;;2070712;28;20038;-74
2023/12/16 02:58:02;;;;;;;25.83;12.48;;;6.20;99.90;;;;;;2065264;28;20033;-75
2023/12/16 02:59:03;;;;;;;29.90;13.18;;;6.30;99.90;;;;;;2069069;28;20026;-74
2023/12/16 03:00:04;;;;;;;31.25;13.32;;;6.30;99.90;;;;;;2078590;28;20050;-75
2023/12/16 03:01:06;;;;;;;26.85;13.38;;;6.20;99.90;;;;;;2078125;28;20116;-76
2023/12/16 03:02:06;;;;;;;28.10;13.25;;;6.30;99.90;;;;;;2079537;28;20029;-76
2023/12/16 03:03:07;;;;;;;26.58;12.63;;;6.30;99.90;;;;;;2076314;28;20065;-75
2023/12/16 03:04:07;;;;;;;25.77;13.00;;;6.30;99.90;;;;;;2078876;28;20030;-75
2023/12/16 03:05:08;;;;;;;30.98;12.93;;;6.30;99.90;;;;;;2079104;28;20029;-75
2023/12/16 03:06:09;;;;;;;23.23;11.85;;;6.30;99.90;;;;;;2076225;28;20043;-74
2023/12/16 03:07:10;;;;;;;27.83;12.30;;;6.30;99.90;;;;;;2087309;28;20033;-74
2023/12/16 03:08:10;;;;;;;26.58;12.20;;;6.30;99.90;;;;;;2084522;28;20025;-75
2023/12/16 03:09:11;;;;;;;22.73;11.57;;;6.30;99.90;;;;;;2075801;28;20586;-75
2023/12/16 03:10:12;;;;;;;23.85;11.98;;;6.30;99.90;;;;;;2079816;28;20041;-75
2023/12/16 03:11:13;;;;;;;24.23;11.95;;;6.30;99.90;;;;;;2079187;28;20047;-75
2023/12/16 03:12:14;;;;;;;26.10;11.80;;;6.30;99.90;;;;;;2083120;28;20095;-75
2023/12/16 03:13:14;;;;;;;24.98;12.35;;;6.30;99.90;;;;;;2085994;28;20029;-75
2023/12/16 03:14:16;;;;;;;27.23;12.40;;;6.30;99.90;;;;;;2079644;28;20543;-74
2023/12/16 03:15:17;;;;;;;29.98;12.93;;;6.30;99.90;;;;;;2075822;28;20598;-75
2023/12/16 03:16:17;;;;;;;26.25;13.15;;;6.30;99.90;;;;;;2079122;28;20025;-75
2023/12/16 03:17:18;;;;;;;28.58;12.27;;;6.30;99.90;;;;;;2079465;28;20494;-75
2023/12/16 03:18:19;;;;;;;25.10;12.73;;;6.30;99.90;;;;;;2083682;28;20029;-76
2023/12/16 03:19:19;;;;;;;26.77;11.98;;;6.30;99.90;;;;;;2082163;28;20650;-75
2023/12/16 03:20:20;;;;;;;25.13;12.15;;;6.30;99.90;;;;;;2079405;28;20036;-76
2023/12/16 03:21:20;;;;;;;23.15;12.02;;;6.30;99.90;;;;;;2076562;28;20040;-74
2023/12/16 03:22:21;;;;;;;26.40;12.25;;;6.30;99.90;;;;;;2078578;28;20045;-76
2023/12/16 03:23:21;;;;;;;23.20;11.55;;;6.20;99.90;;;;;;2080712;28;20036;-75
2023/12/16 03:24:22;;;;;;;21.52;10.82;;;6.30;99.90;;;;;;2085030;28;20040;-75
2023/12/16 03:25:23;;;;;;;23.05;11.23;;;6.30;99.90;;;;;;2087075;28;20112;-75
2023/12/16 03:26:23;;;;;;;27.85;11.65;;;6.30;99.90;;;;;;2080061;28;20032;-75
2023/12/16 03:27:24;;;;;;;21.83;11.15;;;6.30;99.90;;;;;;2084152;28;20041;-75
2023/12/16 03:28:24;;;;;;;24.13;11.27;;;6.30;99.90;;;;;;2077179;28;20029;-76
2023/12/16 03:29:25;;;;;;;25.90;11.48;;;6.30;99.90;;;;;;2078779;28;20082;-76
2023/12/16 03:30:25;;;;;;;20.98;9.85;;;6.30;99.90;;;;;;2082820;28;20051;-75
2023/12/16 03:31:26;;;;;;;22.85;10.25;;;6.30;99.90;;;;;;2062342;28;20033;-74
2023/12/16 03:32:26;;;;;;;22.40;10.50;;;6.30;99.90;;;;;;2070263;28;20017;-77
2023/12/16 03:33:27;;;;;;;20.27;9.35;;;6.30;99.90;;;;;;2075134;28;20041;-76
2023/12/16 03:34:30;;;;;;;20.38;9.10;;;6.30;99.90;;;;;;2077545;28;20044;-76
2023/12/16 03:35:30;;;;;;;24.20;10.10;;;6.30;99.90;;;;;;2076788;28;20037;-75
2023/12/16 03:36:31;;;;;;;24.13;9.77;;;6.30;99.90;;;;;;2076479;28;20096;-74
2023/12/16 03:37:31;;;;;;;19.92;9.90;;;6.30;99.90;;;;;;2078593;28;20029;-75
2023/12/16 03:38:32;;;;;;;21.60;9.98;;;6.30;99.90;;;;;;2069101;28;20597;-75
2023/12/16 03:39:32;;;;;;;24.63;10.00;;;6.40;99.90;;;;;;2065256;28;20881;-76
2023/12/16 03:40:33;;;;;;;22.27;9.27;;;6.30;99.90;;;;;;2077663;28;20265;-72
2023/12/16 03:41:34;;;;;;;20.05;9.18;;;6.30;99.90;;;;;;2077988;28;20776;-72
2023/12/16 03:42:34;;;;;;;20.23;9.07;;;6.30;99.90;;;;;;2076532;28;20064;-73
2023/12/16 03:43:35;;;;;;;20.63;8.70;;;6.30;99.90;;;;;;2079516;28;20022;-72
2023/12/16 03:44:35;;;;;;;24.00;9.10;;;6.30;99.90;;;;;;2077415;28;20478;-71
2023/12/16 03:45:36;;;;;;;18.05;9.20;;;6.30;99.90;;;;;;2075668;28;20037;-72
2023/12/16 03:46:36;;;;;;;18.70;9.23;;;6.30;99.90;;;;;;2075030;28;20044;-72
2023/12/16 03:47:37;;;;;;;20.80;9.63;;;6.30;99.90;;;;;;2079085;28;20106;-72
2023/12/16 03:48:38;;;;;;;19.92;9.50;;;6.30;99.90;;;;;;2078461;28;20029;-72
2023/12/16 03:49:39;;;;;;;20.20;9.45;;;6.30;99.90;;;;;;2075925;28;20045;-72
2023/12/16 03:50:40;;;;;;;18.27;8.82;;;6.30;99.90;;;;;;2078526;28;20510;-73
2023/12/16 03:51:40;;;;;;;20.30;8.82;;;6.30;99.90;;;;;;2078263;28;20040;-72
2023/12/16 03:52:41;;;;;;;19.27;8.48;;;6.30;99.90;;;;;;2075501;28;20502;-72
2023/12/16 03:53:42;;;;;;;19.83;9.02;;;6.30;99.90;;;;;;2079289;28;20506;-72
2023/12/16 03:54:42;;;;;;;19.25;8.75;;;6.30;99.90;;;;;;2079074;28;20029;-72
2023/12/16 03:55:43;;;;;;;18.75;8.55;;;6.30;99.90;;;;;;2074630;28;20081;-73
2023/12/16 03:56:43;;;;;;;21.27;9.20;;;6.30;99.90;;;;;;2070196;28;20018;-72
2023/12/16 03:57:44;;;;;;;19.27;9.05;;;6.30;99.90;;;;;;2078539;28;20387;-73
2023/12/16 03:58:44;;;;;;;15.95;8.63;;;6.30;99.90;;;;;;2075264;28;20471;-73
2023/12/16 03:59:45;;;;;;;17.58;8.18;;;6.30;99.90;;;;;;2078430;28;20026;-72
2023/12/16 04:00:45;;;;;;;20.17;8.35;;;6.30;99.90;;;;;;2078078;28;20533;-73
2023/12/16 04:01:46;;;;;;;15.13;8.10;;;6.30;99.90;;;;;;2066466;28;20484;-72
2023/12/16 04:02:46;;;;;;;20.48;8.98;;;6.30;99.90;;;;;;2069818;28;20423;-72
2023/12/16 04:03:47;;;;;;;18.27;7.97;;;6.30;99.90;;;;;;2078212;28;20179;-72
2023/12/16 04:04:48;;;;;;;15.75;8.52;;;6.30;99.90;;;;;;2078835;28;20017;-71
2023/12/16 04:05:49;;;;;;;18.40;8.25;;;6.30;99.90;;;;;;2065989;28;20030;-72
2023/12/16 04:06:50;;;;;;;15.23;7.88;;;6.20;99.90;;;;;;2066352;28;20516;-72
2023/12/16 04:07:50;;;;;;;17.83;8.00;;;6.30;99.90;;;;;;2062012;28;20108;-71
2023/12/16 04:08:51;;;;;;;18.40;8.20;;;6.20;99.90;;;;;;2061537;28;20424;-72
2023/12/16 04:09:51;;;;;;;17.17;8.48;;;6.20;99.90;;;;;;2071927;28;20018;-72
2023/12/16 04:10:52;;;;;;;17.40;8.15;;;6.20;99.90;;;;;;2078305;28;20025;-72
2023/12/16 04:11:53;;;;;;;20.48;8.43;;;6.20;99.90;;;;;;2082692;28;20078;-72
2023/12/16 04:12:53;;;;;;;18.70;8.57;;;6.10;99.90;;;;;;2075055;28;20029;-72
2023/12/16 04:13:54;;;;;;;19.17;8.35;;;6.10;99.90;;;;;;2077461;28;20131;-72
2023/12/16 04:14:54;;;;;;;18.25;8.65;;;6.10;99.90;;;;;;2082633;28;20029;-72
2023/12/16 04:15:55;;;;;;;15.45;8.73;;;6.10;99.90;;;;;;2078326;28;20029;-71
2023/12/16 04:16:55;;;;;;;17.48;8.73;;;6.10;99.90;;;;;;2078074;28;20029;-72
2023/12/16 04:17:56;;;;;;;18.33;8.30;;;6.10;99.90;;;;;;2076976;28;20045;-72
2023/12/16 04:18:57;;;;;;;17.23;8.20;;;6.10;99.90;;;;;;2078831;28;20029;-72
2023/12/16 04:19:57;;;;;;;14.57;7.80;;;6.10;99.90;;;;;;2076312;28;20044;-72
2023/12/16 04:20:59;;;;;;;18.02;8.07;;;6.10;99.90;;;;;;2076633;28;20034;-72
2023/12/16 04:21:59;;;;;;;20.75;8.32;;;6.10;99.90;;;;;;2078291;28;20503;-72
2023/12/16 04:23:00;;;;;;;16.52;7.78;;;6.10;99.90;;;;;;2084382;28;20029;-72
2023/12/16 04:24:00;;;;;;;17.08;8.20;;;6.20;99.90;;;;;;2076973;28;20032;-72
2023/12/16 04:25:09;;;;;;;18.33;7.80;;;6.10;99.90;;;;;;2078325;28;20048;-72
2023/12/16 04:26:09;;;;;;;17.70;7.65;;;6.20;99.90;;;;;;2077496;28;20091;-72
2023/12/16 04:27:10;;;;;;;17.38;7.65;;;6.20;99.90;;;;;;2075039;28;20029;-72
2023/12/16 04:28:11;;;;;;;18.15;7.95;;;6.20;99.90;;;;;;2070135;28;20033;-72
2023/12/16 04:29:11;;;;;;;16.08;7.82;;;6.20;99.90;;;;;;2077636;28;20029;-72
2023/12/16 04:30:12;;;;;;;15.80;7.88;;;6.20;99.90;;;;;;2075516;28;20033;-72
2023/12/16 04:31:16;;;;;;;21.05;8.00;;;6.20;99.90;;;;;;2070554;28;20033;-71
2023/12/16 04:32:17;;;;;;;19.45;7.63;;;6.20;99.90;;;;;;2078493;28;20506;-72
2023/12/16 04:33:18;;;;;;;19.23;7.97;;;6.20;99.90;;;;;;2083389;28;20107;-71
2023/12/16 04:34:19;;;;;;;16.02;7.50;;;6.20;99.90;;;;;;2082665;28;20102;-71
2023/12/16 04:35:19;;;;;;;19.77;7.82;;;6.20;99.90;;;;;;2078597;28;20025;-72
2023/12/16 04:36:20;;;;;;;17.65;7.68;;;6.20;99.90;;;;;;2077861;28;20115;-71
2023/12/16 04:37:20;;;;;;;18.73;7.60;;;6.20;99.90;;;;;;2074784;28;20025;-72
2023/12/16 04:38:21;;;;;;;17.23;7.70;;;6.20;99.90;;;;;;2074686;28;20523;-72
2023/12/16 04:39:21;;;;;;;19.30;7.82;;;6.20;99.90;;;;;;2075244;28;20057;-72
2023/12/16 04:40:22;;;;;;;18.60;7.88;;;6.20;99.90;;;;;;2075905;28;20029;-72
2023/12/16 04:41:22;;;;;;;19.88;8.00;;;6.20;99.90;;;;;;2078562;28;20376;-73
2023/12/16 04:42:23;;;;;;;19.15;7.70;;;6.20;99.90;;;;;;2075054;28;20030;-72
2023/12/16 04:43:23;;;;;;;13.18;7.13;;;6.20;99.90;;;;;;2077280;28;20021;-72
2023/12/16 04:44:24;;;;;;;13.88;7.15;;;6.20;99.90;;;;;;2080001;28;20028;-73
2023/12/16 04:45:24;;;;;;;15.20;7.00;;;6.20;99.90;;;;;;2076741;28;20013;-71
2023/12/16 04:46:25;;;;;;;15.30;7.03;;;6.20;99.90;;;;;;2079542;28;20029;-72
2023/12/16 04:47:26;;;;;;;19.27;7.90;;;6.20;99.90;;;;;;2074094;28;20045;-71
2023/12/16 04:48:26;;;;;;;16.65;7.18;;;6.10;99.90;;;;;;2078915;28;20025;-71
2023/12/16 04:49:27;;;;;;;18.23;7.50;;;6.20;99.90;;;;;;2079968;28;20037;-71
2023/12/16 04:50:28;;;;;;;17.70;7.45;;;6.20;99.90;;;;;;2068956;28;20036;-71
2023/12/16 04:51:28;;;;;;;15.25;7.22;;;6.20;99.90;;;;;;2079070;28;20026;-71
2023/12/16 04:52:29;;;;;;;16.13;7.55;;;6.20;99.90;;;;;;2080616;28;20143;-73
2023/12/16 04:53:29;;;;;;;13.15;7.10;;;6.20;99.90;;;;;;2077972;28;20075;-73
2023/12/16 04:54:30;;;;;;;17.95;7.93;;;6.20;99.90;;;;;;2079204;28;20031;-74
2023/12/16 04:55:30;;;;;;;15.85;7.38;;;6.20;99.90;;;;;;2080596;28;20090;-72
2023/12/16 04:56:31;;;;;;;16.88;7.78;;;6.20;99.90;;;;;;2079966;28;20295;-72
2023/12/16 04:57:32;;;;;;;16.90;7.63;;;6.10;99.90;;;;;;2078348;28;20555;-72
2023/12/16 04:58:32;;;;;;;17.20;7.78;;;6.20;99.90;;;;;;2078858;28;20578;-73
2023/12/16 04:59:33;;;;;;;18.35;7.63;;;6.20;99.90;;;;;;2080532;28;20060;-71
2023/12/16 05:00:33;;;;;;;17.52;7.28;;;6.20;99.90;;;;;;2084323;28;20084;-72
2023/12/16 05:01:34;;;;;;;20.42;7.65;;;6.20;99.90;;;;;;2081890;28;20076;-73
2023/12/16 05:02:34;;;;;;;17.48;7.13;;;6.20;99.90;;;;;;2078570;28;20037;-73
2023/12/16 05:03:35;;;;;;;14.93;7.20;;;6.20;99.90;;;;;;2078607;28;20109;-73
2023/12/16 05:04:35;;;;;;;15.45;7.55;;;6.20;99.90;;;;;;2075820;28;20052;-72
2023/12/16 05:05:36;;;;;;;17.63;7.82;;;6.20;99.90;;;;;;2079701;28;20593;-72
2023/12/16 05:06:36;;;;;;;21.50;7.55;;;6.20;99.90;;;;;;2078191;28;21081;-72
2023/12/16 05:07:39;;;;;;;16.67;7.53;;;6.20;99.90;;;;;;2077150;28;20675;-71
2023/12/16 05:08:39;;;;;;;14.73;7.10;;;6.20;99.90;;;;;;2068231;28;20026;-73
2023/12/16 05:09:40;;;;;;;19.27;7.55;;;6.20;99.90;;;;;;2071217;28;20105;-72
2023/12/16 05:10:41;;;;;;;16.42;7.00;;;6.20;99.90;;;;;;2078652;28;20039;-72
2023/12/16 05:11:41;;;;;;;14.57;7.05;;;6.20;99.90;;;;;;2068452;28;20036;-72
2023/12/16 05:12:42;;;;;;;15.70;7.65;;;6.20;99.90;;;;;;2075683;28;20029;-73
2023/12/16 05:13:43;;;;;;;18.17;7.20;;;6.20;99.90;;;;;;2075777;28;20128;-72